Terminal Aerodrome Forecast
Issued by NWS

Home | Current Version | Previous Version | Graphics & Text | Print | Product List | Glossary On
Versions: 1 2 3 4 5 6 7 8 9 10 11 12 13 14 15 16 17 18 19 20 21 22 23 24
823
FTUS43 KGRB 260719 AAA
TAFCWA
TAF AMD
KCWA 260719Z 2607/2706 20006KT 1 1/2SM BR OVC003
      TEMPO 2607/2611 1/4SM FG VV002
     FM261400 23008KT P6SM SCT018 OVC025
     FM261900 24009G15KT P6SM SCT025 BKN040
     FM262300 19006KT P6SM SCT040 BKN250=

USA.gov is the U.S. government's official web portal to all federal, state and local government web resources and services.